sensor_id;sensor_type;location;lat;lon;timestamp;pressure;altitude;pressure_sealevel;temperature;humidity
54918;BME280;40818;50.562;7.454;2022-11-18T08:39:10;96288.97;;;6.82;100.00
54918;BME280;40818;50.562;7.454;2022-11-18T08:44:15;96302.94;;;6.91;100.00
54918;BME280;40818;50.562;7.454;2022-11-18T08:59:35;96317.66;;;7.13;100.00
54918;BME280;40818;50.562;7.454;2022-11-18T09:04:38;96324.00;;;7.21;100.00
54918;BME280;40818;50.562;7.454;2022-11-18T09:09:42;96335.31;;;7.31;100.00
54918;BME280;40818;50.562;7.454;2022-11-18T09:14:49;96338.16;;;7.39;100.00
54918;BME280;40818;50.562;7.454;2022-11-18T09:19:52;96340.25;;;7.45;100.00
54918;BME280;40818;50.562;7.454;2022-11-18T09:24:56;96344.25;;;7.49;100.00
54918;BME280;40818;50.562;7.454;2022-11-18T09:30:02;96336.63;;;7.48;100.00
54918;BME280;40818;50.562;7.454;2022-11-18T09:35:06;96348.50;;;7.62;100.00
54918;BME280;40818;50.562;7.454;2022-11-18T09:40:12;96356.25;;;7.73;100.00
54918;BME280;40818;50.562;7.454;2022-11-18T09:45:23;96355.09;;;7.77;100.00
54918;BME280;40818;50.562;7.454;2022-11-18T09:50:29;96362.25;;;7.96;100.00
54918;BME280;40818;50.562;7.454;2022-11-18T09:55:35;96380.69;;;8.14;100.00
54918;BME280;40818;50.562;7.454;2022-11-18T10:00:43;96375.03;;;8.32;100.00
54918;BME280;40818;50.562;7.454;2022-11-18T10:05:51;96386.56;;;8.50;100.00
54918;BME280;40818;50.562;7.454;2022-11-18T10:11:01;96393.34;;;8.63;100.00
54918;BME280;40818;50.562;7.454;2022-11-18T10:16:20;96391.44;;;8.76;100.00
54918;BME280;40818;50.562;7.454;2022-11-18T10:21:35;96400.09;;;8.98;100.00
54918;BME280;40818;50.562;7.454;2022-11-18T10:26:43;96393.91;;;9.10;100.00
54918;BME280;40818;50.562;7.454;2022-11-18T10:31:59;96399.72;;;9.23;100.00
54918;BME280;40818;50.562;7.454;2022-11-18T10:37:06;96401.25;;;9.47;100.00
54918;BME280;40818;50.562;7.454;2022-11-18T10:42:16;96406.44;;;9.68;100.00
54918;BME280;40818;50.562;7.454;2022-11-18T10:47:28;96406.94;;;9.83;100.00
54918;BME280;40818;50.562;7.454;2022-11-18T10:52:50;96405.19;;;10.15;100.00
54918;BME280;40818;50.562;7.454;2022-11-18T10:57:57;96412.13;;;10.45;100.00
54918;BME280;40818;50.562;7.454;2022-11-18T11:03:24;96408.25;;;10.61;100.00
54918;BME280;40818;50.562;7.454;2022-11-18T11:08:27;96406.75;;;10.68;100.00
54918;BME280;40818;50.562;7.454;2022-11-18T11:13:31;96402.41;;;10.98;100.00
54918;BME280;40818;50.562;7.454;2022-11-18T11:18:51;96406.00;;;11.26;100.00
54918;BME280;40818;50.562;7.454;2022-11-18T11:23:56;96413.78;;;11.36;100.00
54918;BME280;40818;50.562;7.454;2022-11-18T11:29:05;96415.84;;;11.22;100.00
54918;BME280;40818;50.562;7.454;2022-11-18T11:34:23;96418.25;;;11.73;100.00
54918;BME280;40818;50.562;7.454;2022-11-18T11:45:08;96421.09;;;11.99;100.00
54918;BME280;40818;50.562;7.454;2022-11-18T11:50:22;96421.53;;;11.94;100.00
54918;BME280;40818;50.562;7.454;2022-11-18T11:55:34;96419.00;;;12.50;100.00
54918;BME280;40818;50.562;7.454;2022-11-18T12:00:42;96411.38;;;12.67;100.00
54918;BME280;40818;50.562;7.454;2022-11-18T12:05:51;96419.16;;;12.94;100.00
54918;BME280;40818;50.562;7.454;2022-11-18T12:10:58;96419.28;;;13.11;100.00
54918;BME280;40818;50.562;7.454;2022-11-18T12:16:23;96429.28;;;13.34;99.74
54918;BME280;40818;50.562;7.454;2022-11-18T12:21:55;96428.75;;;13.66;98.42
54918;BME280;40818;50.562;7.454;2022-11-18T12:27:02;96437.75;;;13.72;92.45
54918;BME280;40818;50.562;7.454;2022-11-18T12:32:24;96444.66;;;13.55;90.15
54918;BME280;40818;50.562;7.454;2022-11-18T12:38:03;96448.34;;;13.16;89.79
54918;BME280;40818;50.562;7.454;2022-11-18T12:48:51;96451.78;;;12.43;88.48
54918;BME280;40818;50.562;7.454;2022-11-18T12:53:55;96445.03;;;12.12;89.89
54918;BME280;40818;50.562;7.454;2022-11-18T12:59:00;96449.41;;;11.92;92.73
54918;BME280;40818;50.562;7.454;2022-11-18T13:04:11;96457.94;;;11.75;94.38
54918;BME280;40818;50.562;7.454;2022-11-18T13:09:19;96467.38;;;11.56;98.27
54918;BME280;40818;50.562;7.454;2022-11-18T13:14:26;96473.28;;;11.39;99.02
54918;BME280;40818;50.562;7.454;2022-11-18T13:19:53;96474.91;;;11.20;95.33
54918;BME280;40818;50.562;7.454;2022-11-18T13:24:56;96473.78;;;11.13;95.21
54918;BME280;40818;50.562;7.454;2022-11-18T13:30:03;96478.66;;;10.97;92.73
54918;BME280;40818;50.562;7.454;2022-11-18T13:35:14;96473.34;;;10.88;95.99
54918;BME280;40818;50.562;7.454;2022-11-18T13:40:20;96475.50;;;10.83;96.01
54918;BME280;40818;50.562;7.454;2022-11-18T13:45:26;96470.16;;;10.75;95.99
54918;BME280;40818;50.562;7.454;2022-11-18T13:50:35;96465.59;;;10.57;92.96
54918;BME280;40818;50.562;7.454;2022-11-18T13:55:44;96468.41;;;10.45;96.66
54918;BME280;40818;50.562;7.454;2022-11-18T14:00:54;96474.38;;;10.35;95.13
54918;BME280;40818;50.562;7.454;2022-11-18T14:06:02;96476.88;;;10.25;96.34
54918;BME280;40818;50.562;7.454;2022-11-18T14:11:06;96478.88;;;10.12;96.60
54918;BME280;40818;50.562;7.454;2022-11-18T14:16:29;96483.50;;;10.08;97.89
54918;BME280;40818;50.562;7.454;2022-11-18T14:21:36;96478.25;;;9.99;97.22
54918;BME280;40818;50.562;7.454;2022-11-18T14:26:40;96491.88;;;9.91;96.55
54918;BME280;40818;50.562;7.454;2022-11-18T14:31:43;96494.13;;;9.84;96.72
54918;BME280;40818;50.562;7.454;2022-11-18T14:36:50;96491.47;;;9.74;96.65
54918;BME280;40818;50.562;7.454;2022-11-18T14:41:54;96500.94;;;9.64;99.27
54918;BME280;40818;50.562;7.454;2022-11-18T14:47:00;96504.16;;;9.56;100.00
54918;BME280;40818;50.562;7.454;2022-11-18T14:52:09;96506.66;;;9.47;100.00
54918;BME280;40818;50.562;7.454;2022-11-18T14:57:15;96509.44;;;9.34;100.00
54918;BME280;40818;50.562;7.454;2022-11-18T15:02:19;96504.63;;;9.18;100.00
54918;BME280;40818;50.562;7.454;2022-11-18T15:07:25;96512.53;;;9.16;100.00
54918;BME280;40818;50.562;7.454;2022-11-18T15:12:29;96517.34;;;9.10;100.00
54918;BME280;40818;50.562;7.454;2022-11-18T15:17:33;96525.75;;;9.02;100.00
54918;BME280;40818;50.562;7.454;2022-11-18T15:22:39;96523.63;;;8.96;100.00
54918;BME280;40818;50.562;7.454;2022-11-18T15:27:42;96529.41;;;8.88;100.00
54918;BME280;40818;50.562;7.454;2022-11-18T15:32:46;96527.63;;;8.77;100.00
54918;BME280;40818;50.562;7.454;2022-11-18T15:37:52;96535.41;;;8.66;100.00
54918;BME280;40818;50.562;7.454;2022-11-18T15:42:55;96533.28;;;8.60;100.00
54918;BME280;40818;50.562;7.454;2022-11-18T15:47:59;96541.63;;;8.52;100.00
54918;BME280;40818;50.562;7.454;2022-11-18T15:53:05;96545.00;;;8.41;100.00
54918;BME280;40818;50.562;7.454;2022-11-18T15:58:08;96543.81;;;8.34;100.00
54918;BME280;40818;50.562;7.454;2022-11-18T16:03:11;96553.56;;;8.30;100.00
54918;BME280;40818;50.562;7.454;2022-11-18T16:08:17;96567.06;;;8.23;100.00
54918;BME280;40818;50.562;7.454;2022-11-18T16:13:21;96564.50;;;8.23;100.00
54918;BME280;40818;50.562;7.454;2022-11-18T16:18:24;96568.13;;;8.20;100.00
54918;BME280;40818;50.562;7.454;2022-11-18T16:23:30;96571.69;;;7.95;100.00
54918;BME280;40818;50.562;7.454;2022-11-18T16:28:34;96569.13;;;7.95;100.00
54918;BME280;40818;50.562;7.454;2022-11-18T16:33:39;96568.88;;;7.98;100.00
54918;BME280;40818;50.562;7.454;2022-11-18T16:38:45;96578.06;;;8.02;100.00
54918;BME280;40818;50.562;7.454;2022-11-18T16:43:48;96576.28;;;8.02;100.00
54918;BME280;40818;50.562;7.454;2022-11-18T16:48:52;96575.72;;;7.99;100.00
54918;BME280;40818;50.562;7.454;2022-11-18T16:53:59;96584.81;;;7.92;100.00
54918;BME280;40818;50.562;7.454;2022-11-18T16:59:05;96577.78;;;7.94;100.00
54918;BME280;40818;50.562;7.454;2022-11-18T17:04:09;96593.19;;;7.95;100.00
54918;BME280;40818;50.562;7.454;2022-11-18T17:09:17;96592.38;;;7.95;100.00
54918;BME280;40818;50.562;7.454;2022-11-18T17:14:21;96589.06;;;7.93;100.00
54918;BME280;40818;50.562;7.454;2022-11-18T17:19:25;96595.03;;;7.93;100.00
54918;BME280;40818;50.562;7.454;2022-11-18T17:24:31;96596.00;;;7.92;100.00
54918;BME280;40818;50.562;7.454;2022-11-18T17:29:35;96593.53;;;7.91;100.00
54918;BME280;40818;50.562;7.454;2022-11-18T17:34:38;96599.13;;;7.84;100.00
54918;BME280;40818;50.562;7.454;2022-11-18T17:39:44;96601.94;;;7.81;100.00
54918;BME280;40818;50.562;7.454;2022-11-18T17:44:47;96603.78;;;7.79;100.00
54918;BME280;40818;50.562;7.454;2022-11-18T17:49:51;96616.81;;;7.78;100.00
54918;BME280;40818;50.562;7.454;2022-11-18T17:54:57;96620.47;;;7.75;100.00
54918;BME280;40818;50.562;7.454;2022-11-18T18:00:01;96623.47;;;7.69;100.00
54918;BME280;40818;50.562;7.454;2022-11-18T18:05:08;96635.69;;;7.67;100.00
54918;BME280;40818;50.562;7.454;2022-11-18T18:10:15;96634.28;;;7.63;100.00
54918;BME280;40818;50.562;7.454;2022-11-18T18:15:18;96634.47;;;7.60;100.00
54918;BME280;40818;50.562;7.454;2022-11-18T18:20:22;96637.28;;;7.57;100.00
54918;BME280;40818;50.562;7.454;2022-11-18T18:25:28;96638.41;;;7.52;100.00
54918;BME280;40818;50.562;7.454;2022-11-18T18:30:31;96640.28;;;7.50;100.00
54918;BME280;40818;50.562;7.454;2022-11-18T18:35:38;96636.97;;;7.48;100.00
54918;BME280;40818;50.562;7.454;2022-11-18T18:40:44;96645.16;;;7.42;100.00
54918;BME280;40818;50.562;7.454;2022-11-18T18:45:48;96644.56;;;7.39;100.00
54918;BME280;40818;50.562;7.454;2022-11-18T18:51:05;96656.75;;;7.37;100.00
54918;BME280;40818;50.562;7.454;2022-11-18T18:56:11;96657.06;;;7.32;100.00
54918;BME280;40818;50.562;7.454;2022-11-18T19:01:17;96657.28;;;7.29;100.00
54918;BME280;40818;50.562;7.454;2022-11-18T19:06:22;96656.69;;;7.25;100.00
54918;BME280;40818;50.562;7.454;2022-11-18T19:11:29;96667.00;;;7.25;100.00
54918;BME280;40818;50.562;7.454;2022-11-18T19:16:46;96663.78;;;7.22;100.00
54918;BME280;40818;50.562;7.454;2022-11-18T19:21:49;96669.88;;;7.21;100.00
54918;BME280;40818;50.562;7.454;2022-11-18T19:26:55;96668.34;;;7.18;100.00
54918;BME280;40818;50.562;7.454;2022-11-18T19:31:59;96663.38;;;7.15;100.00
54918;BME280;40818;50.562;7.454;2022-11-18T19:37:02;96670.53;;;7.11;100.00
54918;BME280;40818;50.562;7.454;2022-11-18T19:42:08;96675.88;;;7.08;100.00
54918;BME280;40818;50.562;7.454;2022-11-18T19:47:12;96682.91;;;7.06;100.00
54918;BME280;40818;50.562;7.454;2022-11-18T19:52:15;96678.88;;;7.02;100.00
54918;BME280;40818;50.562;7.454;2022-11-18T19:57:21;96687.06;;;6.96;100.00
54918;BME280;40818;50.562;7.454;2022-11-18T20:02:24;96679.00;;;6.88;100.00
54918;BME280;40818;50.562;7.454;2022-11-18T20:07:28;96690.25;;;6.74;100.00
54918;BME280;40818;50.562;7.454;2022-11-18T20:12:34;96691.78;;;6.63;100.00
54918;BME280;40818;50.562;7.454;2022-11-18T20:17:38;96698.69;;;6.50;100.00
54918;BME280;40818;50.562;7.454;2022-11-18T20:22:41;96699.97;;;6.43;100.00
54918;BME280;40818;50.562;7.454;2022-11-18T20:27:47;96706.56;;;6.34;100.00
54918;BME280;40818;50.562;7.454;2022-11-18T20:32:50;96708.44;;;6.32;100.00
54918;BME280;40818;50.562;7.454;2022-11-18T20:37:54;96703.66;;;6.26;100.00
54918;BME280;40818;50.562;7.454;2022-11-18T20:43:00;96708.38;;;6.19;100.00
54918;BME280;40818;50.562;7.454;2022-11-18T20:48:15;96715.25;;;6.06;100.00
54918;BME280;40818;50.562;7.454;2022-11-18T20:53:19;96709.31;;;6.18;100.00
54918;BME280;40818;50.562;7.454;2022-11-18T20:58:27;96714.56;;;6.17;100.00
54918;BME280;40818;50.562;7.454;2022-11-18T21:03:30;96717.97;;;6.17;100.00
54918;BME280;40818;50.562;7.454;2022-11-18T21:08:34;96724.34;;;6.11;100.00
54918;BME280;40818;50.562;7.454;2022-11-18T21:13:41;96736.22;;;6.14;100.00
54918;BME280;40818;50.562;7.454;2022-11-18T21:18:56;96731.63;;;6.05;100.00
54918;BME280;40818;50.562;7.454;2022-11-18T21:24:01;96733.38;;;6.04;100.00
54918;BME280;40818;50.562;7.454;2022-11-18T21:29:09;96729.25;;;6.02;100.00
54918;BME280;40818;50.562;7.454;2022-11-18T21:34:13;96740.47;;;6.01;100.00
54918;BME280;40818;50.562;7.454;2022-11-18T21:39:16;96740.81;;;6.09;100.00
54918;BME280;40818;50.562;7.454;2022-11-18T21:44:24;96742.72;;;6.20;100.00
54918;BME280;40818;50.562;7.454;2022-11-18T21:49:27;96750.91;;;6.26;100.00
54918;BME280;40818;50.562;7.454;2022-11-18T21:54:31;96744.69;;;6.29;100.00
54918;BME280;40818;50.562;7.454;2022-11-18T21:59:37;96758.31;;;6.31;100.00
54918;BME280;40818;50.562;7.454;2022-11-18T22:04:40;96756.28;;;6.36;100.00
54918;BME280;40818;50.562;7.454;2022-11-18T22:09:57;96764.75;;;6.38;100.00
54918;BME280;40818;50.562;7.454;2022-11-18T22:15:04;96773.00;;;6.43;100.00
54918;BME280;40818;50.562;7.454;2022-11-18T22:20:10;96772.28;;;6.41;100.00
54918;BME280;40818;50.562;7.454;2022-11-18T22:25:14;96765.28;;;6.43;100.00
54918;BME280;40818;50.562;7.454;2022-11-18T22:30:20;96766.28;;;6.41;100.00
54918;BME280;40818;50.562;7.454;2022-11-18T22:35:24;96759.59;;;6.38;100.00
54918;BME280;40818;50.562;7.454;2022-11-18T22:40:27;96754.50;;;6.24;100.00
54918;BME280;40818;50.562;7.454;2022-11-18T22:45:33;96753.94;;;6.19;100.00
54918;BME280;40818;50.562;7.454;2022-11-18T22:50:36;96761.53;;;6.07;100.00
54918;BME280;40818;50.562;7.454;2022-11-18T22:55:42;96757.38;;;6.05;100.00
54918;BME280;40818;50.562;7.454;2022-11-18T23:00:48;96753.34;;;6.01;100.00
54918;BME280;40818;50.562;7.454;2022-11-18T23:05:51;96758.50;;;6.01;100.00
54918;BME280;40818;50.562;7.454;2022-11-18T23:11:00;96765.94;;;6.05;100.00
54918;BME280;40818;50.562;7.454;2022-11-18T23:16:06;96758.56;;;6.13;100.00
54918;BME280;40818;50.562;7.454;2022-11-18T23:21:10;96760.00;;;6.18;100.00
54918;BME280;40818;50.562;7.454;2022-11-18T23:26:14;96755.88;;;6.15;100.00
54918;BME280;40818;50.562;7.454;2022-11-18T23:31:21;96756.72;;;6.15;100.00
54918;BME280;40818;50.562;7.454;2022-11-18T23:36:25;96759.66;;;6.09;100.00
54918;BME280;40818;50.562;7.454;2022-11-18T23:41:29;96754.34;;;6.12;100.00
54918;BME280;40818;50.562;7.454;2022-11-18T23:46:35;96749.59;;;6.19;100.00
54918;BME280;40818;50.562;7.454;2022-11-18T23:51:38;96753.75;;;6.22;100.00
54918;BME280;40818;50.562;7.454;2022-11-18T23:56:41;96762.31;;;6.22;100.00
